sensor_id;sensor_type;location;lat;lon;timestamp;pressure;altitude;pressure_sealevel;temperature;humidity
22389;BME280;11362;48.102;11.620;2023-04-24T00:02:09;94347.69;;;21.35;38.02
22389;BME280;11362;48.102;11.620;2023-04-24T00:04:35;94353.56;;;21.37;37.98
22389;BME280;11362;48.102;11.620;2023-04-24T00:07:00;94348.03;;;21.37;38.01
22389;BME280;11362;48.102;11.620;2023-04-24T00:09:26;94336.22;;;21.36;38.01
22389;BME280;11362;48.102;11.620;2023-04-24T00:11:52;94338.53;;;21.38;37.99
22389;BME280;11362;48.102;11.620;2023-04-24T00:14:17;94328.34;;;21.35;38.15
22389;BME280;11362;48.102;11.620;2023-04-24T00:16:42;94334.22;;;21.37;38.22
22389;BME280;11362;48.102;11.620;2023-04-24T00:19:08;94332.66;;;21.36;37.80
22389;BME280;11362;48.102;11.620;2023-04-24T00:21:33;94333.88;;;21.35;37.91
22389;BME280;11362;48.102;11.620;2023-04-24T00:23:58;94333.06;;;21.34;38.04
22389;BME280;11362;48.102;11.620;2023-04-24T00:26:23;94329.09;;;21.35;38.08
22389;BME280;11362;48.102;11.620;2023-04-24T00:28:49;94331.13;;;21.35;37.95
22389;BME280;11362;48.102;11.620;2023-04-24T00:31:14;94331.13;;;21.35;37.99
22389;BME280;11362;48.102;11.620;2023-04-24T00:33:39;94334.63;;;21.35;37.99
22389;BME280;11362;48.102;11.620;2023-04-24T00:36:05;94331.13;;;21.35;37.90
22389;BME280;11362;48.102;11.620;2023-04-24T00:38:30;94324.78;;;21.34;37.58
22389;BME280;11362;48.102;11.620;2023-04-24T00:40:55;94332.66;;;21.36;37.94
22389;BME280;11362;48.102;11.620;2023-04-24T00:43:21;94331.88;;;21.35;37.88
22389;BME280;11362;48.102;11.620;2023-04-24T00:45:46;94333.88;;;21.35;37.90
22389;BME280;11362;48.102;11.620;2023-04-24T00:48:11;94328.34;;;21.35;37.78
22389;BME280;11362;48.102;11.620;2023-04-24T00:50:38;94329.91;;;21.36;37.99
22389;BME280;11362;48.102;11.620;2023-04-24T00:53:03;94328.69;;;21.37;37.80
22389;BME280;11362;48.102;11.620;2023-04-24T00:55:29;94321.63;;;21.36;37.72
22389;BME280;11362;48.102;11.620;2023-04-24T00:57:54;94326.72;;;21.37;37.67
22389;BME280;11362;48.102;11.620;2023-04-24T01:00:20;94321.19;;;21.37;37.79
22389;BME280;11362;48.102;11.620;2023-04-24T01:02:45;94313.31;;;21.36;37.87
22389;BME280;11362;48.102;11.620;2023-04-24T01:05:15;94323.59;;;21.35;37.86
22389;BME280;11362;48.102;11.620;2023-04-24T01:07:41;94326.00;;;21.33;38.00
22389;BME280;11362;48.102;11.620;2023-04-24T01:10:08;94325.25;;;21.33;37.92
22389;BME280;11362;48.102;11.620;2023-04-24T01:12:34;94328.00;;;21.33;37.81
22389;BME280;11362;48.102;11.620;2023-04-24T01:14:59;94325.25;;;21.33;38.06
22389;BME280;11362;48.102;11.620;2023-04-24T01:17:24;94325.25;;;21.33;37.95
22389;BME280;11362;48.102;11.620;2023-04-24T01:19:50;94322.47;;;21.33;37.89
22389;BME280;11362;48.102;11.620;2023-04-24T01:22:15;94319.72;;;21.33;37.89
22389;BME280;11362;48.102;11.620;2023-04-24T01:24:41;94314.19;;;21.33;37.83
22389;BME280;11362;48.102;11.620;2023-04-24T01:27:08;94318.91;;;21.32;38.08
22389;BME280;11362;48.102;11.620;2023-04-24T01:29:34;94312.97;;;21.34;38.02
22389;BME280;11362;48.102;11.620;2023-04-24T01:31:59;94313.41;;;21.32;37.88
22389;BME280;11362;48.102;11.620;2023-04-24T01:34:26;94307.09;;;21.32;38.00
22389;BME280;11362;48.102;11.620;2023-04-24T01:36:51;94312.59;;;21.32;37.70
22389;BME280;11362;48.102;11.620;2023-04-24T01:39:16;94311.06;;;21.31;38.05
22389;BME280;11362;48.102;11.620;2023-04-24T01:41:42;94315.38;;;21.32;37.87
22389;BME280;11362;48.102;11.620;2023-04-24T01:44:07;94309.84;;;21.32;38.05
22389;BME280;11362;48.102;11.620;2023-04-24T01:46:33;94317.38;;;21.31;38.02
22389;BME280;11362;48.102;11.620;2023-04-24T01:49:00;94310.28;;;21.30;37.96
22389;BME280;11362;48.102;11.620;2023-04-24T01:51:25;94322.91;;;21.31;37.65
22389;BME280;11362;48.102;11.620;2023-04-24T01:53:51;94313.41;;;21.32;37.94
22389;BME280;11362;48.102;11.620;2023-04-24T01:56:16;94323.25;;;21.33;37.86
22389;BME280;11362;48.102;11.620;2023-04-24T01:58:42;94318.13;;;21.32;37.99
22389;BME280;11362;48.102;11.620;2023-04-24T02:01:08;94318.13;;;21.32;37.76
22389;BME280;11362;48.102;11.620;2023-04-24T02:03:33;94319.72;;;21.33;37.74
22389;BME280;11362;48.102;11.620;2023-04-24T02:05:59;94320.47;;;21.33;37.86
22389;BME280;11362;48.102;11.620;2023-04-24T02:08:24;94314.19;;;21.33;37.85
22389;BME280;11362;48.102;11.620;2023-04-24T02:10:50;94310.63;;;21.32;37.76
22389;BME280;11362;48.102;11.620;2023-04-24T02:13:15;94315.38;;;21.32;37.82
22389;BME280;11362;48.102;11.620;2023-04-24T02:15:40;94315.38;;;21.32;38.13
22389;BME280;11362;48.102;11.620;2023-04-24T02:18:06;94308.28;;;21.31;37.83
22389;BME280;11362;48.102;11.620;2023-04-24T02:20:31;94304.78;;;21.30;38.01
22389;BME280;11362;48.102;11.620;2023-04-24T02:22:56;94311.06;;;21.31;37.74
22389;BME280;11362;48.102;11.620;2023-04-24T02:25:22;94307.09;;;21.32;37.78
22389;BME280;11362;48.102;11.620;2023-04-24T02:27:47;94305.53;;;21.31;37.65
22389;BME280;11362;48.102;11.620;2023-04-24T02:30:13;94306.31;;;21.31;37.65
22389;BME280;11362;48.102;11.620;2023-04-24T02:32:38;94303.97;;;21.30;37.73
22389;BME280;11362;48.102;11.620;2023-04-24T02:35:03;94306.31;;;21.31;37.85
22389;BME280;11362;48.102;11.620;2023-04-24T02:37:29;94309.50;;;21.30;37.87
22389;BME280;11362;48.102;11.620;2023-04-24T02:39:54;94316.56;;;21.31;37.54
22389;BME280;11362;48.102;11.620;2023-04-24T02:42:19;94309.50;;;21.30;37.83
22389;BME280;11362;48.102;11.620;2023-04-24T02:44:45;94307.09;;;21.32;37.73
22389;BME280;11362;48.102;11.620;2023-04-24T02:47:10;94304.78;;;21.30;37.70
22389;BME280;11362;48.102;11.620;2023-04-24T02:49:35;94308.28;;;21.31;37.70
22389;BME280;11362;48.102;11.620;2023-04-24T02:52:00;94316.56;;;21.31;37.69
22389;BME280;11362;48.102;11.620;2023-04-24T02:54:26;94313.06;;;21.30;37.70
22389;BME280;11362;48.102;11.620;2023-04-24T02:56:51;94305.19;;;21.29;37.74
22389;BME280;11362;48.102;11.620;2023-04-24T02:59:16;94312.25;;;21.30;37.71
22389;BME280;11362;48.102;11.620;2023-04-24T03:01:42;94308.75;;;21.29;37.85
22389;BME280;11362;48.102;11.620;2023-04-24T03:04:07;94308.75;;;21.29;37.75
22389;BME280;11362;48.102;11.620;2023-04-24T03:06:32;94312.25;;;21.30;37.67
22389;BME280;11362;48.102;11.620;2023-04-24T03:08:58;94315.03;;;21.30;37.61
22389;BME280;11362;48.102;11.620;2023-04-24T03:11:23;94311.06;;;21.31;37.79
22389;BME280;11362;48.102;11.620;2023-04-24T03:13:48;94316.22;;;21.29;37.40
22389;BME280;11362;48.102;11.620;2023-04-24T03:16:14;94307.16;;;21.28;37.58
22389;BME280;11362;48.102;11.620;2023-04-24T03:18:39;94310.72;;;21.29;37.66
22389;BME280;11362;48.102;11.620;2023-04-24T03:21:04;94314.25;;;21.29;37.52
22389;BME280;11362;48.102;11.620;2023-04-24T03:23:30;94318.19;;;21.28;37.75
22389;BME280;11362;48.102;11.620;2023-04-24T03:25:55;94317.03;;;21.29;37.53
22389;BME280;11362;48.102;11.620;2023-04-24T03:28:20;94319.00;;;21.29;37.51
22389;BME280;11362;48.102;11.620;2023-04-24T03:30:46;94315.44;;;21.28;37.71
22389;BME280;11362;48.102;11.620;2023-04-24T03:33:11;94309.91;;;21.28;37.76
22389;BME280;11362;48.102;11.620;2023-04-24T03:35:36;94315.44;;;21.28;37.34
22389;BME280;11362;48.102;11.620;2023-04-24T03:38:02;94319.00;;;21.29;37.76
22389;BME280;11362;48.102;11.620;2023-04-24T03:40:27;94318.19;;;21.28;37.50
22389;BME280;11362;48.102;11.620;2023-04-24T03:42:52;94319.00;;;21.29;37.64
22389;BME280;11362;48.102;11.620;2023-04-24T03:45:18;94319.41;;;21.27;37.41
22389;BME280;11362;48.102;11.620;2023-04-24T03:47:43;94315.03;;;21.30;37.62
22389;BME280;11362;48.102;11.620;2023-04-24T03:50:09;94319.00;;;21.29;37.62
22389;BME280;11362;48.102;11.620;2023-04-24T03:52:34;94313.13;;;21.27;37.61
22389;BME280;11362;48.102;11.620;2023-04-24T03:54:59;94313.47;;;21.29;37.54
22389;BME280;11362;48.102;11.620;2023-04-24T03:57:24;94304.41;;;21.28;37.45
22389;BME280;11362;48.102;11.620;2023-04-24T03:59:50;94305.59;;;21.27;37.50
22389;BME280;11362;48.102;11.620;2023-04-24T04:02:15;94303.63;;;21.28;37.74
22389;BME280;11362;48.102;11.620;2023-04-24T04:04:40;94306.41;;;21.28;37.64
22389;BME280;11362;48.102;11.620;2023-04-24T04:07:06;94302.84;;;21.27;37.58
22389;BME280;11362;48.102;11.620;2023-04-24T04:09:31;94297.31;;;21.27;37.52
22389;BME280;11362;48.102;11.620;2023-04-24T04:11:56;94301.63;;;21.28;37.45
22389;BME280;11362;48.102;11.620;2023-04-24T04:14:22;94297.31;;;21.27;37.55
22389;BME280;11362;48.102;11.620;2023-04-24T04:16:47;94301.63;;;21.28;37.89
22389;BME280;11362;48.102;11.620;2023-04-24T04:19:12;94296.91;;;21.29;37.56
22389;BME280;11362;48.102;11.620;2023-04-24T04:21:38;94294.13;;;21.29;37.64
22389;BME280;11362;48.102;11.620;2023-04-24T04:24:03;94295.34;;;21.28;37.59
22389;BME280;11362;48.102;11.620;2023-04-24T04:26:29;94300.88;;;21.28;37.59
22389;BME280;11362;48.102;11.620;2023-04-24T04:28:54;94303.63;;;21.28;37.65
22389;BME280;11362;48.102;11.620;2023-04-24T04:31:20;94307.16;;;21.28;37.64
22389;BME280;11362;48.102;11.620;2023-04-24T04:33:45;94307.16;;;21.28;37.55
22389;BME280;11362;48.102;11.620;2023-04-24T04:36:10;94307.16;;;21.28;37.45
22389;BME280;11362;48.102;11.620;2023-04-24T04:38:36;94316.22;;;21.29;37.54
22389;BME280;11362;48.102;11.620;2023-04-24T04:41:01;94311.91;;;21.28;37.67
22389;BME280;11362;48.102;11.620;2023-04-24T04:43:26;94318.19;;;21.28;37.56
22389;BME280;11362;48.102;11.620;2023-04-24T04:45:52;94311.91;;;21.28;37.50
22389;BME280;11362;48.102;11.620;2023-04-24T04:48:17;94316.66;;;21.27;37.47
22389;BME280;11362;48.102;11.620;2023-04-24T04:50:43;94311.56;;;21.26;37.56
22389;BME280;11362;48.102;11.620;2023-04-24T04:53:08;94319.41;;;21.27;37.47
22389;BME280;11362;48.102;11.620;2023-04-24T04:55:33;94314.69;;;21.28;37.46
22389;BME280;11362;48.102;11.620;2023-04-24T04:57:59;94317.44;;;21.28;37.55
22389;BME280;11362;48.102;11.620;2023-04-24T05:00:24;94322.97;;;21.28;37.42
22389;BME280;11362;48.102;11.620;2023-04-24T05:02:49;94328.50;;;21.28;37.14
22389;BME280;11362;48.102;11.620;2023-04-24T05:05:14;94338.31;;;21.29;37.47
22389;BME280;11362;48.102;11.620;2023-04-24T05:07:40;94332.81;;;21.29;37.48
22389;BME280;11362;48.102;11.620;2023-04-24T05:10:05;94335.56;;;21.29;37.52
22389;BME280;11362;48.102;11.620;2023-04-24T05:12:31;94345.81;;;21.28;37.45
22389;BME280;11362;48.102;11.620;2023-04-24T05:14:56;94348.59;;;21.28;37.55
22389;BME280;11362;48.102;11.620;2023-04-24T05:17:21;94350.94;;;21.30;37.20
22389;BME280;11362;48.102;11.620;2023-04-24T05:19:46;94347.41;;;21.29;37.42
22389;BME280;11362;48.102;11.620;2023-04-24T05:22:12;94343.84;;;21.29;37.27
22389;BME280;11362;48.102;11.620;2023-04-24T05:24:37;94345.81;;;21.28;37.67
22389;BME280;11362;48.102;11.620;2023-04-24T05:27:03;94353.69;;;21.30;37.35
22389;BME280;11362;48.102;11.620;2023-04-24T05:29:29;94352.13;;;21.29;37.33
22389;BME280;11362;48.102;11.620;2023-04-24T05:31:54;94357.66;;;21.29;37.25
22389;BME280;11362;48.102;11.620;2023-04-24T05:34:19;94357.66;;;21.29;37.30
22389;BME280;11362;48.102;11.620;2023-04-24T05:36:44;94349.38;;;21.29;37.22
22389;BME280;11362;48.102;11.620;2023-04-24T05:39:10;94352.13;;;21.29;37.38
22389;BME280;11362;48.102;11.620;2023-04-24T05:41:35;94348.16;;;21.30;37.32
22389;BME280;11362;48.102;11.620;2023-04-24T05:44:00;94347.41;;;21.29;37.19
22389;BME280;11362;48.102;11.620;2023-04-24T05:46:26;94348.59;;;21.28;37.44
22389;BME280;11362;48.102;11.620;2023-04-24T05:48:51;94352.13;;;21.29;37.49
22389;BME280;11362;48.102;11.620;2023-04-24T05:51:16;94354.91;;;21.29;37.44
22389;BME280;11362;48.102;11.620;2023-04-24T05:53:41;94361.22;;;21.29;37.39
22389;BME280;11362;48.102;11.620;2023-04-24T05:56:07;94352.13;;;21.29;37.30
22389;BME280;11362;48.102;11.620;2023-04-24T05:58:32;94360.00;;;21.30;37.47
22389;BME280;11362;48.102;11.620;2023-04-24T06:00:57;94350.94;;;21.30;37.43
22389;BME280;11362;48.102;11.620;2023-04-24T06:03:23;94353.69;;;21.30;37.34
22389;BME280;11362;48.102;11.620;2023-04-24T06:05:50;94354.03;;;21.32;37.45
22389;BME280;11362;48.102;11.620;2023-04-24T06:08:15;94359.22;;;21.30;37.25
22389;BME280;11362;48.102;11.620;2023-04-24T06:10:40;94360.00;;;21.30;37.36
22389;BME280;11362;48.102;11.620;2023-04-24T06:13:06;94364.75;;;21.30;37.45
22389;BME280;11362;48.102;11.620;2023-04-24T06:15:31;94363.19;;;21.29;37.45
22389;BME280;11362;48.102;11.620;2023-04-24T06:17:57;94363.19;;;21.29;37.38
22389;BME280;11362;48.102;11.620;2023-04-24T06:20:23;94361.97;;;21.30;37.07
22389;BME280;11362;48.102;11.620;2023-04-24T06:22:48;94363.97;;;21.29;37.23
22389;BME280;11362;48.102;11.620;2023-04-24T06:25:13;94361.97;;;21.30;37.27
22389;BME280;11362;48.102;11.620;2023-04-24T06:27:39;94367.50;;;21.30;37.22
22389;BME280;11362;48.102;11.620;2023-04-24T06:30:04;94366.28;;;21.31;37.30
22389;BME280;11362;48.102;11.620;2023-04-24T06:32:30;94368.72;;;21.29;37.40
22389;BME280;11362;48.102;11.620;2023-04-24T06:34:55;94365.94;;;21.29;37.34
22389;BME280;11362;48.102;11.620;2023-04-24T06:37:21;94368.72;;;21.29;37.30
22389;BME280;11362;48.102;11.620;2023-04-24T06:39:46;94375.78;;;21.30;37.32
22389;BME280;11362;48.102;11.620;2023-04-24T06:42:11;94374.59;;;21.31;37.32
22389;BME280;11362;48.102;11.620;2023-04-24T06:44:37;94372.59;;;21.31;36.93
22389;BME280;11362;48.102;11.620;2023-04-24T06:47:02;94376.13;;;21.32;37.32
22389;BME280;11362;48.102;11.620;2023-04-24T06:49:28;94374.59;;;21.31;37.21
22389;BME280;11362;48.102;11.620;2023-04-24T06:51:53;94378.13;;;21.31;37.35
22389;BME280;11362;48.102;11.620;2023-04-24T06:54:18;94378.91;;;21.32;37.43
22389;BME280;11362;48.102;11.620;2023-04-24T06:56:43;94374.16;;;21.32;37.47
22389;BME280;11362;48.102;11.620;2023-04-24T06:59:09;94373.03;;;21.30;37.37
22389;BME280;11362;48.102;11.620;2023-04-24T07:01:34;94381.25;;;21.33;37.27
22389;BME280;11362;48.102;11.620;2023-04-24T07:03:59;94374.16;;;21.32;37.54
22389;BME280;11362;48.102;11.620;2023-04-24T07:06:25;94378.91;;;21.32;37.29
22389;BME280;11362;48.102;11.620;2023-04-24T07:08:50;94374.16;;;21.32;37.38
22389;BME280;11362;48.102;11.620;2023-04-24T07:11:15;94377.34;;;21.31;37.24
22389;BME280;11362;48.102;11.620;2023-04-24T07:13:41;94378.91;;;21.32;37.25
22389;BME280;11362;48.102;11.620;2023-04-24T07:16:06;94378.91;;;21.32;37.36
22389;BME280;11362;48.102;11.620;2023-04-24T07:18:31;94380.91;;;21.31;37.28
22389;BME280;11362;48.102;11.620;2023-04-24T07:20:56;94390.72;;;21.32;37.10
22389;BME280;11362;48.102;11.620;2023-04-24T07:23:22;94387.97;;;21.32;37.34
22389;BME280;11362;48.102;11.620;2023-04-24T07:25:47;94391.53;;;21.33;37.19
22389;BME280;11362;48.102;11.620;2023-04-24T07:28:12;94391.53;;;21.33;37.34
22389;BME280;11362;48.102;11.620;2023-04-24T07:30:38;94391.53;;;21.33;37.25
22389;BME280;11362;48.102;11.620;2023-04-24T07:33:03;94393.09;;;21.34;37.17
22389;BME280;11362;48.102;11.620;2023-04-24T07:35:28;94394.28;;;21.33;37.29
22389;BME280;11362;48.102;11.620;2023-04-24T07:37:54;94402.56;;;21.33;36.90
22389;BME280;11362;48.102;11.620;2023-04-24T07:40:19;94402.56;;;21.33;37.19
22389;BME280;11362;48.102;11.620;2023-04-24T07:42:45;94402.56;;;21.33;37.08
22389;BME280;11362;48.102;11.620;2023-04-24T07:45:10;94403.00;;;21.31;37.15
22389;BME280;11362;48.102;11.620;2023-04-24T07:47:36;94394.72;;;21.31;37.28
22389;BME280;11362;48.102;11.620;2023-04-24T07:50:01;94408.09;;;21.33;37.11
22389;BME280;11362;48.102;11.620;2023-04-24T07:52:26;94405.34;;;21.33;37.06
22389;BME280;11362;48.102;11.620;2023-04-24T07:54:52;94404.53;;;21.32;37.22
22389;BME280;11362;48.102;11.620;2023-04-24T07:57:17;94409.72;;;21.30;37.25
22389;BME280;11362;48.102;11.620;2023-04-24T07:59:43;94416.81;;;21.31;37.24
22389;BME280;11362;48.102;11.620;2023-04-24T08:02:08;94416.81;;;21.31;37.22
22389;BME280;11362;48.102;11.620;2023-04-24T08:04:33;94415.59;;;21.32;37.21
22389;BME280;11362;48.102;11.620;2023-04-24T08:06:59;94424.69;;;21.33;37.10
22389;BME280;11362;48.102;11.620;2023-04-24T08:09:24;94425.84;;;21.32;37.12
22389;BME280;11362;48.102;11.620;2023-04-24T08:11:49;94430.19;;;21.33;37.27
22389;BME280;11362;48.102;11.620;2023-04-24T08:14:15;94421.91;;;21.33;37.12
22389;BME280;11362;48.102;11.620;2023-04-24T08:16:40;94427.00;;;21.34;37.20
22389;BME280;11362;48.102;11.620;2023-04-24T08:19:06;94432.97;;;21.33;37.40
22389;BME280;11362;48.102;11.620;2023-04-24T08:21:31;94431.38;;;21.32;37.11
22389;BME280;11362;48.102;11.620;2023-04-24T08:23:57;94429.41;;;21.32;36.99
22389;BME280;11362;48.102;11.620;2023-04-24T08:26:22;94426.66;;;21.32;37.35
22389;BME280;11362;48.102;11.620;2023-04-24T08:28:47;94426.66;;;21.32;37.15
22389;BME280;11362;48.102;11.620;2023-04-24T08:31:13;94430.63;;;21.31;37.04
22389;BME280;11362;48.102;11.620;2023-04-24T08:33:38;94423.09;;;21.32;37.25
22389;BME280;11362;48.102;11.620;2023-04-24T08:36:05;94429.41;;;21.32;37.28
22389;BME280;11362;48.102;11.620;2023-04-24T08:38:30;94434.13;;;21.32;37.13
22389;BME280;11362;48.102;11.620;2023-04-24T08:40:58;94434.13;;;21.32;37.07
22389;BME280;11362;48.102;11.620;2023-04-24T08:43:24;94438.09;;;21.31;37.18
22389;BME280;11362;48.102;11.620;2023-04-24T08:45:51;94455.88;;;21.30;37.19
22389;BME280;11362;48.102;11.620;2023-04-24T08:48:17;94467.28;;;21.32;37.01
22389;BME280;11362;48.102;11.620;2023-04-24T08:50:43;94472.81;;;21.32;37.15
22389;BME280;11362;48.102;11.620;2023-04-24T08:53:08;94477.16;;;21.33;37.19
22389;BME280;11362;48.102;11.620;2023-04-24T08:55:34;94473.59;;;21.32;37.44
22389;BME280;11362;48.102;11.620;2023-04-24T08:58:01;94475.94;;;21.34;37.08
22389;BME280;11362;48.102;11.620;2023-04-24T09:00:27;94485.44;;;21.33;37.21
22389;BME280;11362;48.102;11.620;2023-04-24T09:02:53;94484.25;;;21.34;37.02
22389;BME280;11362;48.102;11.620;2023-04-24T09:05:20;94486.22;;;21.33;37.01
22389;BME280;11362;48.102;11.620;2023-04-24T09:07:56;94490.97;;;21.33;37.05
22389;BME280;11362;48.102;11.620;2023-04-24T09:10:23;94488.97;;;21.33;36.93
22389;BME280;11362;48.102;11.620;2023-04-24T09:12:51;94494.50;;;21.33;37.00
22389;BME280;11362;48.102;11.620;2023-04-24T09:15:17;94506.34;;;21.34;37.04
22389;BME280;11362;48.102;11.620;2023-04-24T09:17:43;94487.00;;;21.34;37.13
22389;BME280;11362;48.102;11.620;2023-04-24T09:20:08;94492.53;;;21.34;37.08
22389;BME280;11362;48.102;11.620;2023-04-24T09:22:34;94488.97;;;21.33;37.00
22389;BME280;11362;48.102;11.620;2023-04-24T09:25:02;94491.31;;;21.35;36.91
22389;BME280;11362;48.102;11.620;2023-04-24T09:27:28;94496.84;;;21.35;37.00
22389;BME280;11362;48.102;11.620;2023-04-24T09:29:54;94492.53;;;21.34;36.68
22389;BME280;11362;48.102;11.620;2023-04-24T09:32:21;94492.94;;;21.32;37.03
22389;BME280;11362;48.102;11.620;2023-04-24T09:34:47;94497.25;;;21.33;36.79
22389;BME280;11362;48.102;11.620;2023-04-24T09:37:28;94504.78;;;21.33;37.00
22389;BME280;11362;48.102;11.620;2023-04-24T09:42:51;94499.97;;;21.37;37.36
22389;BME280;11362;48.102;11.620;2023-04-24T09:45:17;94511.34;;;21.39;36.93
22389;BME280;11362;48.102;11.620;2023-04-24T09:47:42;94500.69;;;21.41;36.97
22389;BME280;11362;48.102;11.620;2023-04-24T09:50:15;94510.53;;;21.42;36.78
22389;BME280;11362;48.102;11.620;2023-04-24T09:52:45;94495.22;;;21.37;36.88
22389;BME280;11362;48.102;11.620;2023-04-24T09:55:13;94488.91;;;21.37;36.67
22389;BME280;11362;48.102;11.620;2023-04-24T09:57:54;94481.81;;;21.36;36.68
22389;BME280;11362;48.102;11.620;2023-04-24T10:00:29;94482.63;;;21.36;36.86
22389;BME280;11362;48.102;11.620;2023-04-24T10:02:59;94485.38;;;21.36;36.88
22389;BME280;11362;48.102;11.620;2023-04-24T10:05:27;94481.81;;;21.36;36.77
22389;BME280;11362;48.102;11.620;2023-04-24T10:08:06;94481.41;;;21.37;36.84
22389;BME280;11362;48.102;11.620;2023-04-24T10:10:33;94480.63;;;21.37;36.74
22389;BME280;11362;48.102;11.620;2023-04-24T10:12:59;94484.94;;;21.38;37.00
22389;BME280;11362;48.102;11.620;2023-04-24T10:15:26;94480.22;;;21.38;36.87
22389;BME280;11362;48.102;11.620;2023-04-24T10:17:51;94480.63;;;21.37;36.51
22389;BME280;11362;48.102;11.620;2023-04-24T10:20:16;94485.72;;;21.38;36.98
22389;BME280;11362;48.102;11.620;2023-04-24T10:22:42;94471.13;;;21.38;36.72
22389;BME280;11362;48.102;11.620;2023-04-24T10:25:08;94476.66;;;21.38;36.76
22389;BME280;11362;48.102;11.620;2023-04-24T10:27:35;94477.09;;;21.36;36.87
22389;BME280;11362;48.102;11.620;2023-04-24T10:30:01;94482.19;;;21.38;36.82
22389;BME280;11362;48.102;11.620;2023-04-24T10:32:27;94468.38;;;21.38;37.08
22389;BME280;11362;48.102;11.620;2023-04-24T10:34:52;94463.63;;;21.38;36.73
22389;BME280;11362;48.102;11.620;2023-04-24T10:37:18;94465.59;;;21.38;36.76
22389;BME280;11362;48.102;11.620;2023-04-24T10:39:47;94467.59;;;21.37;36.77
22389;BME280;11362;48.102;11.620;2023-04-24T10:42:15;94466.81;;;21.37;36.94
22389;BME280;11362;48.102;11.620;2023-04-24T10:44:40;94466.81;;;21.37;36.70
22389;BME280;11362;48.102;11.620;2023-04-24T10:47:12;94463.28;;;21.36;36.86
22389;BME280;11362;48.102;11.620;2023-04-24T10:49:38;94464.47;;;21.35;37.00
22389;BME280;11362;48.102;11.620;2023-04-24T10:52:04;94476.31;;;21.36;36.93
22389;BME280;11362;48.102;11.620;2023-04-24T10:59:43;94511.41;;;21.35;36.89
22389;BME280;11362;48.102;11.620;2023-04-24T11:02:09;94522.47;;;21.35;36.89
22389;BME280;11362;48.102;11.620;2023-04-24T11:04:34;94514.97;;;21.36;36.96
22389;BME280;11362;48.102;11.620;2023-04-24T11:06:59;94503.94;;;21.36;36.92
22389;BME280;11362;48.102;11.620;2023-04-24T11:09:30;94506.69;;;21.36;36.96
22389;BME280;11362;48.102;11.620;2023-04-24T11:12:10;94499.97;;;21.37;36.75
22389;BME280;11362;48.102;11.620;2023-04-24T11:17:35;94495.97;;;21.38;36.97
22389;BME280;11362;48.102;11.620;2023-04-24T11:20:05;94494.78;;;21.39;36.89
22389;BME280;11362;48.102;11.620;2023-04-24T11:22:33;94494.78;;;21.39;36.92
22389;BME280;11362;48.102;11.620;2023-04-24T11:24:59;94494.78;;;21.39;36.78
22389;BME280;11362;48.102;11.620;2023-04-24T11:27:29;94492.03;;;21.39;37.00
22389;BME280;11362;48.102;11.620;2023-04-24T11:32:39;94491.19;;;21.42;36.81
22389;BME280;11362;48.102;11.620;2023-04-24T11:35:21;94501.03;;;21.43;37.05
22389;BME280;11362;48.102;11.620;2023-04-24T11:37:48;94495.94;;;21.41;36.97
22389;BME280;11362;48.102;11.620;2023-04-24T11:40:15;94499.47;;;21.42;36.91
22389;BME280;11362;48.102;11.620;2023-04-24T11:42:46;94508.13;;;21.44;36.70
22389;BME280;11362;48.102;11.620;2023-04-24T11:45:14;94496.31;;;21.43;36.67
22389;BME280;11362;48.102;11.620;2023-04-24T11:47:40;94499.84;;;21.44;37.09
22389;BME280;11362;48.102;11.620;2023-04-24T11:50:08;94494.72;;;21.42;36.88
22389;BME280;11362;48.102;11.620;2023-04-24T11:52:37;94491.97;;;21.42;37.00
22389;BME280;11362;48.102;11.620;2023-04-24T11:55:03;94490.78;;;21.43;36.96
22389;BME280;11362;48.102;11.620;2023-04-24T11:57:29;94478.94;;;21.43;36.96
22389;BME280;11362;48.102;11.620;2023-04-24T11:59:54;94487.63;;;21.41;37.00
22389;BME280;11362;48.102;11.620;2023-04-24T12:02:24;94491.59;;;21.40;37.00
22389;BME280;11362;48.102;11.620;2023-04-24T12:04:50;94496.38;;;21.40;36.83
22389;BME280;11362;48.102;11.620;2023-04-24T12:07:15;94493.59;;;21.40;37.03
22389;BME280;11362;48.102;11.620;2023-04-24T12:09:42;94501.91;;;21.40;36.94
22389;BME280;11362;48.102;11.620;2023-04-24T12:12:07;94496.38;;;21.40;37.00
22389;BME280;11362;48.102;11.620;2023-04-24T12:14:42;94499.91;;;21.40;37.05
22389;BME280;11362;48.102;11.620;2023-04-24T12:17:07;94495.16;;;21.41;36.93
22389;BME280;11362;48.102;11.620;2023-04-24T12:19:32;94505.00;;;21.42;37.05
22389;BME280;11362;48.102;11.620;2023-04-24T12:22:02;94496.38;;;21.40;36.77
22389;BME280;11362;48.102;11.620;2023-04-24T12:24:28;94497.13;;;21.40;37.18
22389;BME280;11362;48.102;11.620;2023-04-24T12:26:53;94490.84;;;21.40;37.08
22389;BME280;11362;48.102;11.620;2023-04-24T12:29:22;94494.78;;;21.39;37.05
22389;BME280;11362;48.102;11.620;2023-04-24T12:31:48;94494.38;;;21.40;36.84
22389;BME280;11362;48.102;11.620;2023-04-24T12:34:19;94492.41;;;21.41;37.13
22389;BME280;11362;48.102;11.620;2023-04-24T12:36:44;94503.44;;;21.41;36.97
22389;BME280;11362;48.102;11.620;2023-04-24T12:39:15;94485.25;;;21.43;36.95
22389;BME280;11362;48.102;11.620;2023-04-24T12:41:50;94491.53;;;21.44;36.88
22389;BME280;11362;48.102;11.620;2023-04-24T12:44:15;94476.53;;;21.45;36.96
22389;BME280;11362;48.102;11.620;2023-04-24T12:46:40;94482.06;;;21.45;37.02
22389;BME280;11362;48.102;11.620;2023-04-24T12:49:06;94475.75;;;21.44;37.07
22389;BME280;11362;48.102;11.620;2023-04-24T12:51:31;94486.81;;;21.44;37.05
22389;BME280;11362;48.102;11.620;2023-04-24T12:53:56;94503.38;;;21.44;36.80
22389;BME280;11362;48.102;11.620;2023-04-24T12:56:22;94512.44;;;21.45;36.89
22389;BME280;11362;48.102;11.620;2023-04-24T12:58:47;94510.47;;;21.45;37.06